sensor_id;sensor_type;location;lat;lon;timestamp;P1;durP1;ratioP1;P2;durP2;ratioP2
32393;SDS011;18853;45.426;9.206;2023-03-19T00:01:26;10.82;;;5.60;;
32393;SDS011;18853;45.426;9.206;2023-03-19T00:03:52;9.85;;;5.13;;
32393;SDS011;18853;45.426;9.206;2023-03-19T00:06:17;10.07;;;5.03;;
32393;SDS011;18853;45.426;9.206;2023-03-19T00:08:43;13.48;;;6.00;;
32393;SDS011;18853;45.426;9.206;2023-03-19T00:11:10;12.55;;;5.50;;
32393;SDS011;18853;45.426;9.206;2023-03-19T00:13:37;13.63;;;6.80;;
32393;SDS011;18853;45.426;9.206;2023-03-19T00:16:04;10.15;;;6.55;;
32393;SDS011;18853;45.426;9.206;2023-03-19T00:18:30;11.82;;;6.68;;
32393;SDS011;18853;45.426;9.206;2023-03-19T00:20:56;12.02;;;6.60;;
32393;SDS011;18853;45.426;9.206;2023-03-19T00:23:22;12.90;;;6.90;;
32393;SDS011;18853;45.426;9.206;2023-03-19T00:25:48;11.30;;;6.40;;
32393;SDS011;18853;45.426;9.206;2023-03-19T00:28:14;11.32;;;6.38;;
32393;SDS011;18853;45.426;9.206;2023-03-19T00:30:40;12.88;;;6.13;;
32393;SDS011;18853;45.426;9.206;2023-03-19T00:33:06;11.25;;;6.13;;
32393;SDS011;18853;45.426;9.206;2023-03-19T00:35:32;12.38;;;5.90;;
32393;SDS011;18853;45.426;9.206;2023-03-19T00:37:57;12.45;;;6.07;;
32393;SDS011;18853;45.426;9.206;2023-03-19T00:40:23;11.40;;;6.60;;
32393;SDS011;18853;45.426;9.206;2023-03-19T00:42:49;11.88;;;6.97;;
32393;SDS011;18853;45.426;9.206;2023-03-19T00:45:14;14.32;;;7.78;;
32393;SDS011;18853;45.426;9.206;2023-03-19T00:47:40;16.33;;;8.43;;
32393;SDS011;18853;45.426;9.206;2023-03-19T00:50:06;17.17;;;9.35;;
32393;SDS011;18853;45.426;9.206;2023-03-19T00:52:33;15.55;;;9.25;;
32393;SDS011;18853;45.426;9.206;2023-03-19T00:54:58;16.20;;;9.43;;
32393;SDS011;18853;45.426;9.206;2023-03-19T00:57:24;15.90;;;10.13;;
32393;SDS011;18853;45.426;9.206;2023-03-19T00:59:50;19.40;;;10.57;;
32393;SDS011;18853;45.426;9.206;2023-03-19T01:02:16;21.10;;;11.82;;
32393;SDS011;18853;45.426;9.206;2023-03-19T01:04:42;21.77;;;13.77;;
32393;SDS011;18853;45.426;9.206;2023-03-19T01:07:08;24.17;;;15.48;;
32393;SDS011;18853;45.426;9.206;2023-03-19T01:09:33;24.50;;;17.38;;
32393;SDS011;18853;45.426;9.206;2023-03-19T01:12:00;28.92;;;18.48;;
32393;SDS011;18853;45.426;9.206;2023-03-19T01:14:28;27.70;;;19.35;;
32393;SDS011;18853;45.426;9.206;2023-03-19T01:16:55;33.78;;;21.60;;
32393;SDS011;18853;45.426;9.206;2023-03-19T01:19:21;29.27;;;19.95;;
32393;SDS011;18853;45.426;9.206;2023-03-19T01:21:47;31.73;;;19.80;;
32393;SDS011;18853;45.426;9.206;2023-03-19T01:24:13;32.90;;;21.08;;
32393;SDS011;18853;45.426;9.206;2023-03-19T01:26:40;28.65;;;20.42;;
32393;SDS011;18853;45.426;9.206;2023-03-19T01:29:06;33.15;;;22.50;;
32393;SDS011;18853;45.426;9.206;2023-03-19T01:31:32;29.45;;;20.98;;
32393;SDS011;18853;45.426;9.206;2023-03-19T01:33:58;32.17;;;23.25;;
32393;SDS011;18853;45.426;9.206;2023-03-19T01:36:24;34.45;;;22.73;;
32393;SDS011;18853;45.426;9.206;2023-03-19T01:38:50;34.90;;;23.45;;
32393;SDS011;18853;45.426;9.206;2023-03-19T01:41:15;33.50;;;25.25;;
32393;SDS011;18853;45.426;9.206;2023-03-19T01:43:41;35.10;;;23.88;;
32393;SDS011;18853;45.426;9.206;2023-03-19T01:46:12;36.75;;;25.85;;
32393;SDS011;18853;45.426;9.206;2023-03-19T01:49:02;33.72;;;23.67;;
32393;SDS011;18853;45.426;9.206;2023-03-19T01:51:34;38.67;;;26.08;;
32393;SDS011;18853;45.426;9.206;2023-03-19T01:54:09;36.40;;;26.08;;
32393;SDS011;18853;45.426;9.206;2023-03-19T01:56:38;40.80;;;27.80;;
32393;SDS011;18853;45.426;9.206;2023-03-19T01:59:08;44.17;;;29.60;;
32393;SDS011;18853;45.426;9.206;2023-03-19T02:01:37;43.45;;;29.90;;
32393;SDS011;18853;45.426;9.206;2023-03-19T02:04:17;42.75;;;30.48;;
32393;SDS011;18853;45.426;9.206;2023-03-19T02:06:43;42.70;;;30.88;;
32393;SDS011;18853;45.426;9.206;2023-03-19T02:09:09;45.45;;;32.40;;
32393;SDS011;18853;45.426;9.206;2023-03-19T02:11:35;47.72;;;32.75;;
32393;SDS011;18853;45.426;9.206;2023-03-19T02:14:02;48.78;;;33.30;;
32393;SDS011;18853;45.426;9.206;2023-03-19T02:16:27;45.53;;;32.60;;
32393;SDS011;18853;45.426;9.206;2023-03-19T02:18:53;46.67;;;33.72;;
32393;SDS011;18853;45.426;9.206;2023-03-19T02:21:20;48.75;;;33.38;;
32393;SDS011;18853;45.426;9.206;2023-03-19T02:26:32;52.13;;;35.78;;
32393;SDS011;18853;45.426;9.206;2023-03-19T02:29:00;51.40;;;35.85;;
32393;SDS011;18853;45.426;9.206;2023-03-19T02:31:25;49.60;;;34.75;;
32393;SDS011;18853;45.426;9.206;2023-03-19T02:36:57;53.75;;;36.22;;
32393;SDS011;18853;45.426;9.206;2023-03-19T02:40:03;56.53;;;36.97;;
32393;SDS011;18853;45.426;9.206;2023-03-19T02:42:32;50.67;;;36.40;;
32393;SDS011;18853;45.426;9.206;2023-03-19T02:44:58;48.25;;;35.90;;
32393;SDS011;18853;45.426;9.206;2023-03-19T02:47:24;52.38;;;37.00;;
32393;SDS011;18853;45.426;9.206;2023-03-19T02:49:51;52.28;;;37.85;;
32393;SDS011;18853;45.426;9.206;2023-03-19T02:52:17;55.00;;;36.95;;
32393;SDS011;18853;45.426;9.206;2023-03-19T02:54:43;49.42;;;35.40;;
32393;SDS011;18853;45.426;9.206;2023-03-19T02:57:09;54.63;;;37.10;;
32393;SDS011;18853;45.426;9.206;2023-03-19T02:59:35;55.70;;;38.15;;
32393;SDS011;18853;45.426;9.206;2023-03-19T03:02:01;51.33;;;37.75;;
32393;SDS011;18853;45.426;9.206;2023-03-19T03:04:26;51.03;;;37.35;;
32393;SDS011;18853;45.426;9.206;2023-03-19T03:06:53;51.22;;;38.08;;
32393;SDS011;18853;45.426;9.206;2023-03-19T03:09:19;54.65;;;36.97;;
32393;SDS011;18853;45.426;9.206;2023-03-19T03:11:45;53.03;;;37.60;;
32393;SDS011;18853;45.426;9.206;2023-03-19T03:14:11;52.47;;;37.50;;
32393;SDS011;18853;45.426;9.206;2023-03-19T03:16:36;49.40;;;36.15;;
32393;SDS011;18853;45.426;9.206;2023-03-19T03:19:02;51.28;;;36.58;;
32393;SDS011;18853;45.426;9.206;2023-03-19T03:21:28;52.15;;;38.63;;
32393;SDS011;18853;45.426;9.206;2023-03-19T03:23:54;52.85;;;38.22;;
32393;SDS011;18853;45.426;9.206;2023-03-19T03:26:20;52.65;;;37.10;;
32393;SDS011;18853;45.426;9.206;2023-03-19T03:28:45;50.03;;;36.50;;
32393;SDS011;18853;45.426;9.206;2023-03-19T03:31:11;53.00;;;37.15;;
32393;SDS011;18853;45.426;9.206;2023-03-19T03:33:37;54.20;;;37.47;;
32393;SDS011;18853;45.426;9.206;2023-03-19T03:36:03;51.65;;;37.05;;
32393;SDS011;18853;45.426;9.206;2023-03-19T03:38:29;52.28;;;38.20;;
32393;SDS011;18853;45.426;9.206;2023-03-19T03:40:56;48.75;;;36.75;;
32393;SDS011;18853;45.426;9.206;2023-03-19T03:43:22;49.08;;;36.88;;
32393;SDS011;18853;45.426;9.206;2023-03-19T03:45:49;54.55;;;37.35;;
32393;SDS011;18853;45.426;9.206;2023-03-19T03:48:15;50.25;;;37.22;;
32393;SDS011;18853;45.426;9.206;2023-03-19T03:50:41;49.33;;;36.33;;
32393;SDS011;18853;45.426;9.206;2023-03-19T03:53:07;52.35;;;36.35;;
32393;SDS011;18853;45.426;9.206;2023-03-19T03:55:33;50.00;;;36.83;;
32393;SDS011;18853;45.426;9.206;2023-03-19T03:57:59;49.72;;;36.33;;
32393;SDS011;18853;45.426;9.206;2023-03-19T04:00:25;53.78;;;37.17;;
32393;SDS011;18853;45.426;9.206;2023-03-19T04:02:51;50.38;;;36.88;;
32393;SDS011;18853;45.426;9.206;2023-03-19T04:05:19;47.80;;;36.13;;
32393;SDS011;18853;45.426;9.206;2023-03-19T04:07:45;49.75;;;37.47;;
32393;SDS011;18853;45.426;9.206;2023-03-19T04:10:11;52.03;;;35.92;;
32393;SDS011;18853;45.426;9.206;2023-03-19T04:12:38;47.63;;;36.28;;
32393;SDS011;18853;45.426;9.206;2023-03-19T04:15:05;49.00;;;35.83;;
32393;SDS011;18853;45.426;9.206;2023-03-19T04:17:33;49.05;;;35.45;;
32393;SDS011;18853;45.426;9.206;2023-03-19T04:19:59;46.58;;;35.00;;
32393;SDS011;18853;45.426;9.206;2023-03-19T04:22:26;47.47;;;34.97;;
32393;SDS011;18853;45.426;9.206;2023-03-19T04:24:52;50.60;;;34.90;;
32393;SDS011;18853;45.426;9.206;2023-03-19T04:27:17;51.25;;;36.70;;
32393;SDS011;18853;45.426;9.206;2023-03-19T04:29:43;48.67;;;34.60;;
32393;SDS011;18853;45.426;9.206;2023-03-19T04:32:08;52.17;;;36.63;;
32393;SDS011;18853;45.426;9.206;2023-03-19T04:34:34;46.63;;;34.90;;
32393;SDS011;18853;45.426;9.206;2023-03-19T04:37:00;52.08;;;35.63;;
32393;SDS011;18853;45.426;9.206;2023-03-19T04:39:26;55.53;;;35.00;;
32393;SDS011;18853;45.426;9.206;2023-03-19T04:41:51;48.50;;;35.50;;
32393;SDS011;18853;45.426;9.206;2023-03-19T04:44:18;44.08;;;34.30;;
32393;SDS011;18853;45.426;9.206;2023-03-19T04:46:43;49.10;;;35.05;;
32393;SDS011;18853;45.426;9.206;2023-03-19T04:49:10;44.65;;;33.35;;
32393;SDS011;18853;45.426;9.206;2023-03-19T04:51:36;46.58;;;34.28;;
32393;SDS011;18853;45.426;9.206;2023-03-19T04:54:02;47.08;;;34.80;;
32393;SDS011;18853;45.426;9.206;2023-03-19T04:56:29;49.45;;;34.95;;
32393;SDS011;18853;45.426;9.206;2023-03-19T04:58:55;47.50;;;35.15;;
32393;SDS011;18853;45.426;9.206;2023-03-19T05:01:21;50.72;;;36.40;;
32393;SDS011;18853;45.426;9.206;2023-03-19T05:03:47;47.65;;;35.47;;
32393;SDS011;18853;45.426;9.206;2023-03-19T05:06:13;48.13;;;35.55;;
32393;SDS011;18853;45.426;9.206;2023-03-19T05:08:39;51.40;;;35.92;;
32393;SDS011;18853;45.426;9.206;2023-03-19T05:11:05;48.47;;;35.22;;
32393;SDS011;18853;45.426;9.206;2023-03-19T05:13:30;49.85;;;35.28;;
32393;SDS011;18853;45.426;9.206;2023-03-19T05:15:56;47.20;;;34.72;;
32393;SDS011;18853;45.426;9.206;2023-03-19T05:18:22;51.88;;;36.35;;
32393;SDS011;18853;45.426;9.206;2023-03-19T05:20:48;45.92;;;34.70;;
32393;SDS011;18853;45.426;9.206;2023-03-19T05:23:13;47.53;;;35.33;;
32393;SDS011;18853;45.426;9.206;2023-03-19T05:25:39;47.80;;;35.13;;
32393;SDS011;18853;45.426;9.206;2023-03-19T05:28:06;45.55;;;35.13;;
32393;SDS011;18853;45.426;9.206;2023-03-19T05:30:32;46.42;;;34.90;;
32393;SDS011;18853;45.426;9.206;2023-03-19T05:32:59;49.05;;;35.33;;
32393;SDS011;18853;45.426;9.206;2023-03-19T05:35:26;45.97;;;34.67;;
32393;SDS011;18853;45.426;9.206;2023-03-19T05:37:53;49.63;;;36.03;;
32393;SDS011;18853;45.426;9.206;2023-03-19T05:40:19;48.70;;;34.88;;
32393;SDS011;18853;45.426;9.206;2023-03-19T05:42:46;48.97;;;35.30;;
32393;SDS011;18853;45.426;9.206;2023-03-19T05:45:11;47.72;;;34.70;;
32393;SDS011;18853;45.426;9.206;2023-03-19T05:47:37;44.75;;;35.17;;
32393;SDS011;18853;45.426;9.206;2023-03-19T05:50:03;45.53;;;33.83;;
32393;SDS011;18853;45.426;9.206;2023-03-19T05:52:30;45.45;;;34.58;;
32393;SDS011;18853;45.426;9.206;2023-03-19T05:54:56;53.83;;;36.03;;
32393;SDS011;18853;45.426;9.206;2023-03-19T05:57:21;45.35;;;33.47;;
32393;SDS011;18853;45.426;9.206;2023-03-19T05:59:47;46.05;;;34.45;;
32393;SDS011;18853;45.426;9.206;2023-03-19T06:02:13;46.85;;;34.45;;
32393;SDS011;18853;45.426;9.206;2023-03-19T06:04:39;45.08;;;34.45;;
32393;SDS011;18853;45.426;9.206;2023-03-19T06:07:05;44.95;;;33.40;;
32393;SDS011;18853;45.426;9.206;2023-03-19T06:09:30;47.60;;;34.63;;
32393;SDS011;18853;45.426;9.206;2023-03-19T06:11:56;43.95;;;33.08;;
32393;SDS011;18853;45.426;9.206;2023-03-19T06:14:22;44.90;;;33.05;;
32393;SDS011;18853;45.426;9.206;2023-03-19T06:16:48;43.92;;;33.15;;
32393;SDS011;18853;45.426;9.206;2023-03-19T06:19:14;43.72;;;32.90;;
32393;SDS011;18853;45.426;9.206;2023-03-19T06:21:39;46.50;;;34.30;;
32393;SDS011;18853;45.426;9.206;2023-03-19T06:24:05;42.67;;;32.53;;
32393;SDS011;18853;45.426;9.206;2023-03-19T06:26:31;47.47;;;34.83;;
32393;SDS011;18853;45.426;9.206;2023-03-19T06:28:57;47.92;;;33.42;;
32393;SDS011;18853;45.426;9.206;2023-03-19T06:31:22;44.10;;;32.60;;
32393;SDS011;18853;45.426;9.206;2023-03-19T06:33:48;46.00;;;34.38;;
32393;SDS011;18853;45.426;9.206;2023-03-19T06:36:15;44.33;;;33.40;;
32393;SDS011;18853;45.426;9.206;2023-03-19T06:38:41;47.20;;;32.92;;
32393;SDS011;18853;45.426;9.206;2023-03-19T06:41:07;45.03;;;34.05;;
32393;SDS011;18853;45.426;9.206;2023-03-19T06:43:32;44.67;;;32.78;;
32393;SDS011;18853;45.426;9.206;2023-03-19T06:46:01;45.88;;;33.72;;
32393;SDS011;18853;45.426;9.206;2023-03-19T06:48:31;46.42;;;34.60;;
32393;SDS011;18853;45.426;9.206;2023-03-19T06:50:57;48.20;;;35.63;;
32393;SDS011;18853;45.426;9.206;2023-03-19T06:53:22;49.63;;;35.22;;
32393;SDS011;18853;45.426;9.206;2023-03-19T06:55:48;48.60;;;34.38;;
32393;SDS011;18853;45.426;9.206;2023-03-19T06:58:14;50.10;;;35.55;;
32393;SDS011;18853;45.426;9.206;2023-03-19T07:00:40;47.85;;;33.92;;
32393;SDS011;18853;45.426;9.206;2023-03-19T07:03:05;44.22;;;33.38;;
32393;SDS011;18853;45.426;9.206;2023-03-19T07:05:31;44.20;;;33.85;;
32393;SDS011;18853;45.426;9.206;2023-03-19T07:07:57;43.13;;;31.98;;
32393;SDS011;18853;45.426;9.206;2023-03-19T07:10:23;43.33;;;31.17;;
32393;SDS011;18853;45.426;9.206;2023-03-19T07:12:49;60.75;;;32.15;;
32393;SDS011;18853;45.426;9.206;2023-03-19T07:15:14;47.05;;;32.28;;
32393;SDS011;18853;45.426;9.206;2023-03-19T07:17:41;55.00;;;33.67;;
32393;SDS011;18853;45.426;9.206;2023-03-19T07:20:10;54.70;;;32.85;;
32393;SDS011;18853;45.426;9.206;2023-03-19T07:22:36;74.63;;;28.27;;
32393;SDS011;18853;45.426;9.206;2023-03-19T07:25:02;49.10;;;26.60;;
32393;SDS011;18853;45.426;9.206;2023-03-19T07:27:27;39.75;;;26.60;;
32393;SDS011;18853;45.426;9.206;2023-03-19T07:29:53;36.72;;;27.17;;
32393;SDS011;18853;45.426;9.206;2023-03-19T07:32:19;48.47;;;29.73;;
32393;SDS011;18853;45.426;9.206;2023-03-19T07:34:46;53.30;;;30.65;;
32393;SDS011;18853;45.426;9.206;2023-03-19T07:37:12;63.10;;;31.75;;
32393;SDS011;18853;45.426;9.206;2023-03-19T07:39:37;41.72;;;31.00;;
32393;SDS011;18853;45.426;9.206;2023-03-19T07:42:03;36.15;;;26.80;;
32393;SDS011;18853;45.426;9.206;2023-03-19T07:44:29;25.40;;;17.98;;
32393;SDS011;18853;45.426;9.206;2023-03-19T07:46:55;39.85;;;30.20;;
32393;SDS011;18853;45.426;9.206;2023-03-19T07:49:21;39.17;;;30.90;;
32393;SDS011;18853;45.426;9.206;2023-03-19T07:51:47;36.78;;;29.13;;
32393;SDS011;18853;45.426;9.206;2023-03-19T07:54:13;37.50;;;30.33;;
32393;SDS011;18853;45.426;9.206;2023-03-19T07:56:38;38.90;;;29.50;;
32393;SDS011;18853;45.426;9.206;2023-03-19T07:59:04;41.72;;;31.73;;
32393;SDS011;18853;45.426;9.206;2023-03-19T08:01:30;44.28;;;31.50;;
32393;SDS011;18853;45.426;9.206;2023-03-19T08:03:56;40.60;;;31.83;;
32393;SDS011;18853;45.426;9.206;2023-03-19T08:06:21;39.03;;;31.77;;
32393;SDS011;18853;45.426;9.206;2023-03-19T08:08:47;39.22;;;30.80;;
32393;SDS011;18853;45.426;9.206;2023-03-19T08:11:13;37.88;;;30.02;;
32393;SDS011;18853;45.426;9.206;2023-03-19T08:13:39;39.38;;;30.13;;
32393;SDS011;18853;45.426;9.206;2023-03-19T08:16:05;38.63;;;30.02;;
32393;SDS011;18853;45.426;9.206;2023-03-19T08:18:30;41.78;;;30.05;;
32393;SDS011;18853;45.426;9.206;2023-03-19T08:20:56;36.78;;;29.73;;
32393;SDS011;18853;45.426;9.206;2023-03-19T08:23:22;40.45;;;30.80;;
32393;SDS011;18853;45.426;9.206;2023-03-19T08:25:47;38.42;;;29.52;;
32393;SDS011;18853;45.426;9.206;2023-03-19T08:28:15;37.78;;;29.60;;
32393;SDS011;18853;45.426;9.206;2023-03-19T08:30:41;37.50;;;29.90;;
32393;SDS011;18853;45.426;9.206;2023-03-19T08:33:07;68.32;;;41.33;;
32393;SDS011;18853;45.426;9.206;2023-03-19T08:35:33;48.38;;;32.03;;
32393;SDS011;18853;45.426;9.206;2023-03-19T08:37:58;46.28;;;31.75;;
32393;SDS011;18853;45.426;9.206;2023-03-19T08:40:25;41.92;;;30.70;;
32393;SDS011;18853;45.426;9.206;2023-03-19T08:42:52;38.60;;;29.83;;
32393;SDS011;18853;45.426;9.206;2023-03-19T08:45:18;38.30;;;30.45;;
32393;SDS011;18853;45.426;9.206;2023-03-19T08:47:43;42.42;;;31.38;;
32393;SDS011;18853;45.426;9.206;2023-03-19T08:50:10;38.58;;;30.55;;
32393;SDS011;18853;45.426;9.206;2023-03-19T08:52:36;38.63;;;30.63;;
32393;SDS011;18853;45.426;9.206;2023-03-19T08:55:01;41.70;;;31.27;;
32393;SDS011;18853;45.426;9.206;2023-03-19T08:57:28;39.20;;;30.17;;
32393;SDS011;18853;45.426;9.206;2023-03-19T08:59:55;40.70;;;29.75;;
32393;SDS011;18853;45.426;9.206;2023-03-19T09:02:21;43.33;;;31.88;;
32393;SDS011;18853;45.426;9.206;2023-03-19T09:04:46;41.28;;;29.35;;
32393;SDS011;18853;45.426;9.206;2023-03-19T09:07:12;42.35;;;31.15;;
32393;SDS011;18853;45.426;9.206;2023-03-19T09:09:39;40.00;;;29.92;;
32393;SDS011;18853;45.426;9.206;2023-03-19T09:12:07;45.45;;;31.83;;
32393;SDS011;18853;45.426;9.206;2023-03-19T09:14:34;39.47;;;30.15;;
32393;SDS011;18853;45.426;9.206;2023-03-19T09:17:01;40.47;;;31.05;;
32393;SDS011;18853;45.426;9.206;2023-03-19T09:19:27;38.38;;;30.40;;
32393;SDS011;18853;45.426;9.206;2023-03-19T09:21:53;40.17;;;28.92;;
32393;SDS011;18853;45.426;9.206;2023-03-19T09:24:19;43.92;;;30.95;;
32393;SDS011;18853;45.426;9.206;2023-03-19T09:26:45;37.50;;;29.60;;
32393;SDS011;18853;45.426;9.206;2023-03-19T09:29:11;37.83;;;28.58;;
32393;SDS011;18853;45.426;9.206;2023-03-19T09:31:37;39.03;;;28.17;;
32393;SDS011;18853;45.426;9.206;2023-03-19T09:34:03;37.40;;;27.33;;
32393;SDS011;18853;45.426;9.206;2023-03-19T09:36:31;48.33;;;27.10;;
32393;SDS011;18853;45.426;9.206;2023-03-19T09:38:56;37.97;;;25.17;;
32393;SDS011;18853;45.426;9.206;2023-03-19T09:41:26;50.78;;;25.95;;
32393;SDS011;18853;45.426;9.206;2023-03-19T09:43:57;38.80;;;25.33;;
32393;SDS011;18853;45.426;9.206;2023-03-19T09:46:35;39.45;;;23.63;;
32393;SDS011;18853;45.426;9.206;2023-03-19T09:51:47;35.80;;;23.80;;
32393;SDS011;18853;45.426;9.206;2023-03-19T09:56:57;36.17;;;24.15;;
32393;SDS011;18853;45.426;9.206;2023-03-19T09:59:24;32.40;;;24.17;;
32393;SDS011;18853;45.426;9.206;2023-03-19T10:01:53;30.90;;;22.00;;
32393;SDS011;18853;45.426;9.206;2023-03-19T10:04:41;34.05;;;25.02;;
32393;SDS011;18853;45.426;9.206;2023-03-19T10:15:28;29.85;;;21.90;;
32393;SDS011;18853;45.426;9.206;2023-03-19T10:26:01;27.38;;;20.00;;
32393;SDS011;18853;45.426;9.206;2023-03-19T10:28:29;27.27;;;18.52;;
32393;SDS011;18853;45.426;9.206;2023-03-19T10:34:31;25.23;;;18.25;;
32393;SDS011;18853;45.426;9.206;2023-03-19T10:37:18;22.02;;;16.48;;
32393;SDS011;18853;45.426;9.206;2023-03-19T10:39:50;27.40;;;18.70;;
32393;SDS011;18853;45.426;9.206;2023-03-19T10:42:25;25.73;;;18.08;;
32393;SDS011;18853;45.426;9.206;2023-03-19T10:47:50;26.13;;;18.52;;
32393;SDS011;18853;45.426;9.206;2023-03-19T10:50:20;23.48;;;16.63;;
32393;SDS011;18853;45.426;9.206;2023-03-19T10:52:57;24.45;;;18.45;;
32393;SDS011;18853;45.426;9.206;2023-03-19T10:55:55;23.05;;;16.88;;
32393;SDS011;18853;45.426;9.206;2023-03-19T10:58:25;23.77;;;18.05;;
32393;SDS011;18853;45.426;9.206;2023-03-19T11:01:01;19.52;;;15.23;;
32393;SDS011;18853;45.426;9.206;2023-03-19T11:06:24;22.65;;;17.48;;
32393;SDS011;18853;45.426;9.206;2023-03-19T11:08:58;24.13;;;17.98;;
32393;SDS011;18853;45.426;9.206;2023-03-19T11:11:46;22.55;;;17.33;;
32393;SDS011;18853;45.426;9.206;2023-03-19T11:14:14;18.77;;;14.05;;
32393;SDS011;18853;45.426;9.206;2023-03-19T11:16:46;21.77;;;16.95;;
32393;SDS011;18853;45.426;9.206;2023-03-19T11:19:33;25.33;;;17.98;;
32393;SDS011;18853;45.426;9.206;2023-03-19T11:25:00;20.20;;;15.45;;
32393;SDS011;18853;45.426;9.206;2023-03-19T11:27:37;23.98;;;14.82;;
32393;SDS011;18853;45.426;9.206;2023-03-19T11:30:12;31.67;;;19.98;;
32393;SDS011;18853;45.426;9.206;2023-03-19T11:33:00;24.98;;;17.77;;
32393;SDS011;18853;45.426;9.206;2023-03-19T11:38:24;24.60;;;18.30;;
32393;SDS011;18853;45.426;9.206;2023-03-19T11:44:15;25.55;;;19.33;;
32393;SDS011;18853;45.426;9.206;2023-03-19T11:52:28;24.88;;;20.10;;
32393;SDS011;18853;45.426;9.206;2023-03-19T11:55:00;24.17;;;18.23;;
32393;SDS011;18853;45.426;9.206;2023-03-19T11:58:01;23.05;;;18.25;;
32393;SDS011;18853;45.426;9.206;2023-03-19T12:00:35;22.50;;;16.88;;
32393;SDS011;18853;45.426;9.206;2023-03-19T12:03:26;26.00;;;18.13;;
32393;SDS011;18853;45.426;9.206;2023-03-19T12:09:06;24.15;;;17.80;;
32393;SDS011;18853;45.426;9.206;2023-03-19T12:12:01;25.45;;;17.90;;
32393;SDS011;18853;45.426;9.206;2023-03-19T12:14:38;22.63;;;18.55;;
32393;SDS011;18853;45.426;9.206;2023-03-19T12:17:18;24.10;;;18.20;;
32393;SDS011;18853;45.426;9.206;2023-03-19T12:25:50;19.02;;;15.32;;
32393;SDS011;18853;45.426;9.206;2023-03-19T12:33:48;18.23;;;13.80;;
32393;SDS011;18853;45.426;9.206;2023-03-19T12:36:35;22.92;;;13.52;;
32393;SDS011;18853;45.426;9.206;2023-03-19T12:39:10;17.20;;;12.38;;
32393;SDS011;18853;45.426;9.206;2023-03-19T12:41:42;15.73;;;10.48;;
32393;SDS011;18853;45.426;9.206;2023-03-19T12:44:25;19.75;;;13.52;;
32393;SDS011;18853;45.426;9.206;2023-03-19T12:46:57;15.10;;;11.30;;
32393;SDS011;18853;45.426;9.206;2023-03-19T12:52:10;14.57;;;10.57;;
32393;SDS011;18853;45.426;9.206;2023-03-19T12:54:41;16.73;;;10.00;;
32393;SDS011;18853;45.426;9.206;2023-03-19T13:00:06;16.52;;;10.48;;
32393;SDS011;18853;45.426;9.206;2023-03-19T13:08:26;7.88;;;4.82;;
32393;SDS011;18853;45.426;9.206;2023-03-19T13:10:53;10.50;;;6.63;;
32393;SDS011;18853;45.426;9.206;2023-03-19T13:15:57;13.13;;;9.23;;
32393;SDS011;18853;45.426;9.206;2023-03-19T13:21:30;12.00;;;7.97;;
32393;SDS011;18853;45.426;9.206;2023-03-19T13:26:43;12.93;;;8.35;;
32393;SDS011;18853;45.426;9.206;2023-03-19T13:29:19;13.05;;;9.73;;
32393;SDS011;18853;45.426;9.206;2023-03-19T13:31:50;16.17;;;11.18;;
32393;SDS011;18853;45.426;9.206;2023-03-19T13:36:44;15.27;;;9.80;;
32393;SDS011;18853;45.426;9.206;2023-03-19T13:39:34;14.50;;;11.32;;
32393;SDS011;18853;45.426;9.206;2023-03-19T13:47:59;15.38;;;11.57;;
32393;SDS011;18853;45.426;9.206;2023-03-19T13:50:50;17.05;;;13.60;;
32393;SDS011;18853;45.426;9.206;2023-03-19T13:56:00;17.75;;;9.85;;
32393;SDS011;18853;45.426;9.206;2023-03-19T13:58:44;19.50;;;12.25;;
32393;SDS011;18853;45.426;9.206;2023-03-19T14:03:51;16.85;;;10.93;;
32393;SDS011;18853;45.426;9.206;2023-03-19T14:09:47;15.40;;;11.15;;
32393;SDS011;18853;45.426;9.206;2023-03-19T14:14:43;16.77;;;12.43;;
32393;SDS011;18853;45.426;9.206;2023-03-19T14:17:26;13.32;;;10.90;;
32393;SDS011;18853;45.426;9.206;2023-03-19T14:22:36;17.77;;;12.18;;
32393;SDS011;18853;45.426;9.206;2023-03-19T14:25:21;16.55;;;11.45;;
32393;SDS011;18853;45.426;9.206;2023-03-19T14:27:50;14.63;;;11.50;;
32393;SDS011;18853;45.426;9.206;2023-03-19T14:31:01;13.60;;;10.85;;
32393;SDS011;18853;45.426;9.206;2023-03-19T14:34:00;14.40;;;10.43;;
32393;SDS011;18853;45.426;9.206;2023-03-19T14:36:20;13.93;;;10.40;;
32393;SDS011;18853;45.426;9.206;2023-03-19T14:38:54;12.95;;;9.02;;
32393;SDS011;18853;45.426;9.206;2023-03-19T14:41:26;14.60;;;8.70;;
32393;SDS011;18853;45.426;9.206;2023-03-19T14:57:26;12.35;;;8.68;;
32393;SDS011;18853;45.426;9.206;2023-03-19T14:59:54;14.77;;;9.18;;
32393;SDS011;18853;45.426;9.206;2023-03-19T15:05:05;10.68;;;7.40;;
32393;SDS011;18853;45.426;9.206;2023-03-19T15:07:36;10.77;;;7.45;;
32393;SDS011;18853;45.426;9.206;2023-03-19T15:10:06;11.48;;;8.27;;
32393;SDS011;18853;45.426;9.206;2023-03-19T15:16:01;12.05;;;8.88;;
32393;SDS011;18853;45.426;9.206;2023-03-19T15:18:52;15.10;;;8.13;;
32393;SDS011;18853;45.426;9.206;2023-03-19T15:21:19;13.00;;;8.50;;
32393;SDS011;18853;45.426;9.206;2023-03-19T15:23:45;10.90;;;8.23;;
32393;SDS011;18853;45.426;9.206;2023-03-19T15:26:12;13.70;;;8.82;;
32393;SDS011;18853;45.426;9.206;2023-03-19T15:28:46;13.55;;;9.18;;
32393;SDS011;18853;45.426;9.206;2023-03-19T15:31:14;13.48;;;8.68;;
32393;SDS011;18853;45.426;9.206;2023-03-19T15:33:40;11.95;;;8.75;;
32393;SDS011;18853;45.426;9.206;2023-03-19T15:38:45;11.90;;;8.63;;
32393;SDS011;18853;45.426;9.206;2023-03-19T15:41:16;15.38;;;9.43;;
32393;SDS011;18853;45.426;9.206;2023-03-19T15:43:42;14.10;;;11.00;;
32393;SDS011;18853;45.426;9.206;2023-03-19T15:46:11;14.85;;;10.77;;
32393;SDS011;18853;45.426;9.206;2023-03-19T15:51:06;15.65;;;11.35;;
32393;SDS011;18853;45.426;9.206;2023-03-19T15:53:34;17.35;;;11.30;;
32393;SDS011;18853;45.426;9.206;2023-03-19T15:56:02;15.18;;;11.45;;
32393;SDS011;18853;45.426;9.206;2023-03-19T15:58:30;15.98;;;11.10;;
32393;SDS011;18853;45.426;9.206;2023-03-19T16:01:02;13.48;;;10.95;;
32393;SDS011;18853;45.426;9.206;2023-03-19T16:03:33;15.13;;;11.60;;
32393;SDS011;18853;45.426;9.206;2023-03-19T16:06:06;15.15;;;11.95;;
32393;SDS011;18853;45.426;9.206;2023-03-19T16:08:48;17.20;;;13.50;;
32393;SDS011;18853;45.426;9.206;2023-03-19T16:11:25;16.60;;;12.52;;
32393;SDS011;18853;45.426;9.206;2023-03-19T16:13:57;14.18;;;11.50;;
32393;SDS011;18853;45.426;9.206;2023-03-19T16:16:22;16.48;;;12.27;;
32393;SDS011;18853;45.426;9.206;2023-03-19T16:18:50;13.80;;;11.63;;
32393;SDS011;18853;45.426;9.206;2023-03-19T16:21:17;16.50;;;12.38;;
32393;SDS011;18853;45.426;9.206;2023-03-19T16:24:29;16.42;;;12.75;;
32393;SDS011;18853;45.426;9.206;2023-03-19T16:26:41;17.88;;;12.40;;
32393;SDS011;18853;45.426;9.206;2023-03-19T16:31:43;16.10;;;12.00;;
32393;SDS011;18853;45.426;9.206;2023-03-19T16:34:27;15.60;;;12.38;;
32393;SDS011;18853;45.426;9.206;2023-03-19T16:39:57;15.82;;;13.00;;
32393;SDS011;18853;45.426;9.206;2023-03-19T16:47:52;23.90;;;17.60;;
32393;SDS011;18853;45.426;9.206;2023-03-19T16:50:21;19.90;;;16.70;;
32393;SDS011;18853;45.426;9.206;2023-03-19T16:52:57;25.10;;;18.85;;
32393;SDS011;18853;45.426;9.206;2023-03-19T16:55:34;24.30;;;18.50;;
32393;SDS011;18853;45.426;9.206;2023-03-19T17:00:39;26.25;;;20.35;;